sensor_id;sensor_type;location;lat;lon;timestamp;P1;durP1;ratioP1;P2;durP2;ratioP2
43998;SDS011;51319;52.162;5.302;2023-04-03T00:00:32;3.63;;;1.92;;
43998;SDS011;51319;52.162;5.302;2023-04-03T00:03:00;3.63;;;2.20;;
43998;SDS011;51319;52.162;5.302;2023-04-03T00:05:27;7.03;;;2.72;;
43998;SDS011;51319;52.162;5.302;2023-04-03T00:07:54;10.95;;;3.28;;
43998;SDS011;51319;52.162;5.302;2023-04-03T00:10:21;7.60;;;2.80;;
43998;SDS011;51319;52.162;5.302;2023-04-03T00:12:48;4.88;;;2.25;;
43998;SDS011;51319;52.162;5.302;2023-04-03T00:15:15;4.88;;;2.42;;
43998;SDS011;51319;52.162;5.302;2023-04-03T00:17:42;4.60;;;2.08;;
43998;SDS011;51319;52.162;5.302;2023-04-03T00:20:09;3.33;;;1.95;;
43998;SDS011;51319;52.162;5.302;2023-04-03T00:22:36;3.42;;;2.03;;
43998;SDS011;51319;52.162;5.302;2023-04-03T00:25:03;5.22;;;1.63;;
43998;SDS011;51319;52.162;5.302;2023-04-03T00:27:31;3.58;;;1.98;;
43998;SDS011;51319;52.162;5.302;2023-04-03T00:29:58;5.82;;;2.67;;
43998;SDS011;51319;52.162;5.302;2023-04-03T00:32:25;4.05;;;2.08;;
43998;SDS011;51319;52.162;5.302;2023-04-03T00:34:52;8.23;;;1.80;;
43998;SDS011;51319;52.162;5.302;2023-04-03T00:37:19;6.57;;;2.60;;
43998;SDS011;51319;52.162;5.302;2023-04-03T00:39:46;7.28;;;2.00;;
43998;SDS011;51319;52.162;5.302;2023-04-03T00:42:13;7.10;;;3.15;;
43998;SDS011;51319;52.162;5.302;2023-04-03T00:47:08;7.30;;;2.47;;
43998;SDS011;51319;52.162;5.302;2023-04-03T00:49:37;3.63;;;2.10;;
43998;SDS011;51319;52.162;5.302;2023-04-03T00:52:07;2.40;;;1.80;;
43998;SDS011;51319;52.162;5.302;2023-04-03T00:54:38;4.25;;;2.00;;
43998;SDS011;51319;52.162;5.302;2023-04-03T00:57:08;4.30;;;2.08;;
43998;SDS011;51319;52.162;5.302;2023-04-03T00:59:46;5.07;;;2.38;;
43998;SDS011;51319;52.162;5.302;2023-04-03T01:02:17;7.22;;;3.35;;
43998;SDS011;51319;52.162;5.302;2023-04-03T01:04:44;8.73;;;4.03;;
43998;SDS011;51319;52.162;5.302;2023-04-03T01:07:17;12.38;;;3.75;;
43998;SDS011;51319;52.162;5.302;2023-04-03T01:09:51;6.90;;;3.25;;
43998;SDS011;51319;52.162;5.302;2023-04-03T01:12:24;6.82;;;4.00;;
43998;SDS011;51319;52.162;5.302;2023-04-03T01:15:01;6.05;;;2.90;;
43998;SDS011;51319;52.162;5.302;2023-04-03T01:17:34;5.35;;;2.30;;
43998;SDS011;51319;52.162;5.302;2023-04-03T01:25:32;4.88;;;2.47;;
43998;SDS011;51319;52.162;5.302;2023-04-03T01:28:00;10.85;;;2.45;;
43998;SDS011;51319;52.162;5.302;2023-04-03T01:30:30;4.88;;;2.47;;
43998;SDS011;51319;52.162;5.302;2023-04-03T01:33:05;6.60;;;2.63;;
43998;SDS011;51319;52.162;5.302;2023-04-03T01:35:33;7.82;;;2.58;;
43998;SDS011;51319;52.162;5.302;2023-04-03T01:37:59;3.78;;;2.05;;
43998;SDS011;51319;52.162;5.302;2023-04-03T01:40:26;4.88;;;2.35;;
43998;SDS011;51319;52.162;5.302;2023-04-03T01:42:53;7.05;;;3.50;;
43998;SDS011;51319;52.162;5.302;2023-04-03T01:45:20;4.05;;;2.03;;
43998;SDS011;51319;52.162;5.302;2023-04-03T01:47:47;6.13;;;2.40;;
43998;SDS011;51319;52.162;5.302;2023-04-03T01:50:15;2.92;;;1.92;;
43998;SDS011;51319;52.162;5.302;2023-04-03T01:52:42;5.78;;;2.25;;
43998;SDS011;51319;52.162;5.302;2023-04-03T01:55:09;3.55;;;2.55;;
43998;SDS011;51319;52.162;5.302;2023-04-03T01:57:36;4.55;;;2.13;;
43998;SDS011;51319;52.162;5.302;2023-04-03T02:00:03;3.67;;;2.10;;
43998;SDS011;51319;52.162;5.302;2023-04-03T02:02:32;5.68;;;2.30;;
43998;SDS011;51319;52.162;5.302;2023-04-03T02:04:59;3.50;;;2.10;;
43998;SDS011;51319;52.162;5.302;2023-04-03T02:07:26;2.83;;;2.10;;
43998;SDS011;51319;52.162;5.302;2023-04-03T02:09:53;9.27;;;2.22;;
43998;SDS011;51319;52.162;5.302;2023-04-03T02:12:20;4.32;;;2.10;;
43998;SDS011;51319;52.162;5.302;2023-04-03T02:14:47;7.50;;;2.20;;
43998;SDS011;51319;52.162;5.302;2023-04-03T02:17:14;4.20;;;2.05;;
43998;SDS011;51319;52.162;5.302;2023-04-03T02:19:41;5.53;;;2.45;;
43998;SDS011;51319;52.162;5.302;2023-04-03T02:22:08;5.93;;;2.58;;
43998;SDS011;51319;52.162;5.302;2023-04-03T02:24:35;5.63;;;2.17;;
43998;SDS011;51319;52.162;5.302;2023-04-03T02:27:02;3.17;;;1.92;;
43998;SDS011;51319;52.162;5.302;2023-04-03T02:29:29;4.25;;;2.00;;
43998;SDS011;51319;52.162;5.302;2023-04-03T02:31:56;4.00;;;2.03;;
43998;SDS011;51319;52.162;5.302;2023-04-03T02:34:23;6.70;;;2.47;;
43998;SDS011;51319;52.162;5.302;2023-04-03T02:36:50;3.22;;;1.75;;
43998;SDS011;51319;52.162;5.302;2023-04-03T02:39:17;5.07;;;2.13;;
43998;SDS011;51319;52.162;5.302;2023-04-03T02:41:45;6.55;;;2.22;;
43998;SDS011;51319;52.162;5.302;2023-04-03T02:44:12;9.60;;;2.70;;
43998;SDS011;51319;52.162;5.302;2023-04-03T02:46:40;6.72;;;2.25;;
43998;SDS011;51319;52.162;5.302;2023-04-03T02:49:06;5.18;;;2.20;;
43998;SDS011;51319;52.162;5.302;2023-04-03T02:51:34;6.55;;;2.58;;
43998;SDS011;51319;52.162;5.302;2023-04-03T02:54:01;9.85;;;2.22;;
43998;SDS011;51319;52.162;5.302;2023-04-03T02:56:27;8.57;;;2.25;;
43998;SDS011;51319;52.162;5.302;2023-04-03T02:58:54;4.00;;;2.08;;
43998;SDS011;51319;52.162;5.302;2023-04-03T03:01:21;4.75;;;1.88;;
43998;SDS011;51319;52.162;5.302;2023-04-03T03:03:48;5.80;;;1.90;;
43998;SDS011;51319;52.162;5.302;2023-04-03T03:06:16;6.95;;;2.30;;
43998;SDS011;51319;52.162;5.302;2023-04-03T03:08:43;10.15;;;4.13;;
43998;SDS011;51319;52.162;5.302;2023-04-03T03:11:11;5.93;;;3.15;;
43998;SDS011;51319;52.162;5.302;2023-04-03T03:13:38;7.88;;;2.70;;
43998;SDS011;51319;52.162;5.302;2023-04-03T03:16:05;7.45;;;2.53;;
43998;SDS011;51319;52.162;5.302;2023-04-03T03:18:33;3.30;;;1.88;;
43998;SDS011;51319;52.162;5.302;2023-04-03T03:21:01;7.07;;;2.53;;
43998;SDS011;51319;52.162;5.302;2023-04-03T03:23:29;6.22;;;2.70;;
43998;SDS011;51319;52.162;5.302;2023-04-03T03:26:03;5.38;;;2.40;;
43998;SDS011;51319;52.162;5.302;2023-04-03T03:28:31;4.68;;;2.58;;
43998;SDS011;51319;52.162;5.302;2023-04-03T03:30:59;6.57;;;2.35;;
43998;SDS011;51319;52.162;5.302;2023-04-03T03:33:26;8.25;;;2.47;;
43998;SDS011;51319;52.162;5.302;2023-04-03T03:35:53;4.55;;;1.98;;
43998;SDS011;51319;52.162;5.302;2023-04-03T03:38:21;11.60;;;2.58;;
43998;SDS011;51319;52.162;5.302;2023-04-03T03:40:49;6.88;;;2.55;;
43998;SDS011;51319;52.162;5.302;2023-04-03T03:43:17;6.65;;;1.95;;
43998;SDS011;51319;52.162;5.302;2023-04-03T03:45:44;8.88;;;3.13;;
43998;SDS011;51319;52.162;5.302;2023-04-03T03:48:12;8.70;;;2.47;;
43998;SDS011;51319;52.162;5.302;2023-04-03T03:50:39;7.10;;;2.53;;
43998;SDS011;51319;52.162;5.302;2023-04-03T03:53:06;6.50;;;2.47;;
43998;SDS011;51319;52.162;5.302;2023-04-03T03:55:33;6.97;;;2.40;;
43998;SDS011;51319;52.162;5.302;2023-04-03T03:58:00;6.32;;;2.50;;
43998;SDS011;51319;52.162;5.302;2023-04-03T04:00:28;6.88;;;2.55;;
43998;SDS011;51319;52.162;5.302;2023-04-03T04:02:55;8.70;;;2.80;;
43998;SDS011;51319;52.162;5.302;2023-04-03T04:05:24;11.38;;;2.72;;
43998;SDS011;51319;52.162;5.302;2023-04-03T04:07:51;8.43;;;3.03;;
43998;SDS011;51319;52.162;5.302;2023-04-03T04:10:18;11.75;;;2.55;;
43998;SDS011;51319;52.162;5.302;2023-04-03T04:12:45;7.13;;;2.63;;
43998;SDS011;51319;52.162;5.302;2023-04-03T04:15:12;4.82;;;2.45;;
43998;SDS011;51319;52.162;5.302;2023-04-03T04:17:39;7.05;;;2.80;;
43998;SDS011;51319;52.162;5.302;2023-04-03T04:20:06;5.22;;;2.40;;
43998;SDS011;51319;52.162;5.302;2023-04-03T04:22:34;7.10;;;3.05;;
43998;SDS011;51319;52.162;5.302;2023-04-03T04:25:01;10.10;;;3.30;;
43998;SDS011;51319;52.162;5.302;2023-04-03T04:27:28;9.50;;;2.88;;
43998;SDS011;51319;52.162;5.302;2023-04-03T04:29:55;11.35;;;2.92;;
43998;SDS011;51319;52.162;5.302;2023-04-03T04:32:24;9.55;;;3.10;;
43998;SDS011;51319;52.162;5.302;2023-04-03T04:34:51;14.40;;;3.30;;
43998;SDS011;51319;52.162;5.302;2023-04-03T04:37:18;8.95;;;2.80;;
43998;SDS011;51319;52.162;5.302;2023-04-03T04:39:45;15.77;;;3.42;;
43998;SDS011;51319;52.162;5.302;2023-04-03T04:42:15;7.78;;;2.85;;
43998;SDS011;51319;52.162;5.302;2023-04-03T04:44:43;8.68;;;3.53;;
43998;SDS011;51319;52.162;5.302;2023-04-03T04:47:10;7.47;;;2.80;;
43998;SDS011;51319;52.162;5.302;2023-04-03T04:49:37;10.02;;;3.40;;
43998;SDS011;51319;52.162;5.302;2023-04-03T04:52:04;14.07;;;3.95;;
43998;SDS011;51319;52.162;5.302;2023-04-03T04:54:31;6.22;;;2.90;;
43998;SDS011;51319;52.162;5.302;2023-04-03T04:56:58;6.43;;;3.17;;
43998;SDS011;51319;52.162;5.302;2023-04-03T04:59:25;9.10;;;3.28;;
43998;SDS011;51319;52.162;5.302;2023-04-03T05:01:52;7.38;;;2.95;;
43998;SDS011;51319;52.162;5.302;2023-04-03T05:04:20;8.23;;;2.95;;
43998;SDS011;51319;52.162;5.302;2023-04-03T05:06:47;8.32;;;3.30;;
43998;SDS011;51319;52.162;5.302;2023-04-03T05:09:14;5.55;;;3.55;;
43998;SDS011;51319;52.162;5.302;2023-04-03T05:11:41;7.22;;;3.35;;
43998;SDS011;51319;52.162;5.302;2023-04-03T05:14:09;10.93;;;3.45;;
43998;SDS011;51319;52.162;5.302;2023-04-03T05:16:36;10.23;;;3.80;;
43998;SDS011;51319;52.162;5.302;2023-04-03T05:19:03;16.73;;;3.75;;
43998;SDS011;51319;52.162;5.302;2023-04-03T05:21:30;11.32;;;3.70;;
43998;SDS011;51319;52.162;5.302;2023-04-03T05:24:00;11.95;;;3.67;;
43998;SDS011;51319;52.162;5.302;2023-04-03T05:26:36;8.65;;;3.63;;
43998;SDS011;51319;52.162;5.302;2023-04-03T05:29:03;6.35;;;3.15;;
43998;SDS011;51319;52.162;5.302;2023-04-03T05:31:30;10.65;;;3.67;;
43998;SDS011;51319;52.162;5.302;2023-04-03T05:33:57;6.88;;;3.22;;
43998;SDS011;51319;52.162;5.302;2023-04-03T05:36:24;13.20;;;4.13;;
43998;SDS011;51319;52.162;5.302;2023-04-03T05:38:52;10.88;;;3.50;;
43998;SDS011;51319;52.162;5.302;2023-04-03T05:41:19;9.88;;;3.22;;
43998;SDS011;51319;52.162;5.302;2023-04-03T05:43:49;11.63;;;3.38;;
43998;SDS011;51319;52.162;5.302;2023-04-03T05:46:17;8.82;;;3.00;;
43998;SDS011;51319;52.162;5.302;2023-04-03T05:48:47;12.80;;;3.30;;
43998;SDS011;51319;52.162;5.302;2023-04-03T05:51:18;14.45;;;2.92;;
43998;SDS011;51319;52.162;5.302;2023-04-03T05:53:48;9.57;;;2.65;;
43998;SDS011;51319;52.162;5.302;2023-04-03T05:56:18;11.10;;;2.88;;
43998;SDS011;51319;52.162;5.302;2023-04-03T05:58:48;6.47;;;2.40;;
43998;SDS011;51319;52.162;5.302;2023-04-03T06:01:16;8.93;;;3.10;;
43998;SDS011;51319;52.162;5.302;2023-04-03T06:03:43;8.63;;;2.45;;
43998;SDS011;51319;52.162;5.302;2023-04-03T06:06:12;9.63;;;2.50;;
43998;SDS011;51319;52.162;5.302;2023-04-03T06:11:09;8.98;;;2.63;;
43998;SDS011;51319;52.162;5.302;2023-04-03T06:13:40;9.77;;;2.47;;
43998;SDS011;51319;52.162;5.302;2023-04-03T06:16:48;14.15;;;3.05;;
43998;SDS011;51319;52.162;5.302;2023-04-03T06:19:17;6.47;;;2.78;;
43998;SDS011;51319;52.162;5.302;2023-04-03T06:21:44;5.82;;;2.30;;
43998;SDS011;51319;52.162;5.302;2023-04-03T06:24:12;9.50;;;3.40;;
43998;SDS011;51319;52.162;5.302;2023-04-03T06:26:42;10.15;;;2.58;;
43998;SDS011;51319;52.162;5.302;2023-04-03T06:29:10;8.80;;;2.70;;
43998;SDS011;51319;52.162;5.302;2023-04-03T06:31:36;5.10;;;2.22;;
43998;SDS011;51319;52.162;5.302;2023-04-03T06:34:12;7.65;;;2.47;;
43998;SDS011;51319;52.162;5.302;2023-04-03T06:36:39;12.80;;;3.10;;
43998;SDS011;51319;52.162;5.302;2023-04-03T06:39:06;9.48;;;2.53;;
43998;SDS011;51319;52.162;5.302;2023-04-03T06:41:34;7.68;;;2.88;;
43998;SDS011;51319;52.162;5.302;2023-04-03T06:44:02;5.43;;;2.13;;
43998;SDS011;51319;52.162;5.302;2023-04-03T06:46:29;16.58;;;2.60;;
43998;SDS011;51319;52.162;5.302;2023-04-03T06:48:57;11.52;;;2.53;;
43998;SDS011;51319;52.162;5.302;2023-04-03T06:51:27;7.18;;;1.95;;
43998;SDS011;51319;52.162;5.302;2023-04-03T06:53:56;8.13;;;2.17;;
43998;SDS011;51319;52.162;5.302;2023-04-03T06:56:25;6.15;;;2.45;;
43998;SDS011;51319;52.162;5.302;2023-04-03T06:58:53;9.68;;;4.20;;
43998;SDS011;51319;52.162;5.302;2023-04-03T07:01:24;9.52;;;2.17;;
43998;SDS011;51319;52.162;5.302;2023-04-03T07:03:54;7.30;;;2.30;;
43998;SDS011;51319;52.162;5.302;2023-04-03T07:06:22;5.97;;;1.88;;
43998;SDS011;51319;52.162;5.302;2023-04-03T07:08:49;4.43;;;1.90;;
43998;SDS011;51319;52.162;5.302;2023-04-03T07:11:16;5.50;;;2.33;;
43998;SDS011;51319;52.162;5.302;2023-04-03T07:13:43;3.92;;;2.05;;
43998;SDS011;51319;52.162;5.302;2023-04-03T07:16:10;3.22;;;1.70;;
43998;SDS011;51319;52.162;5.302;2023-04-03T07:18:40;8.07;;;2.10;;
43998;SDS011;51319;52.162;5.302;2023-04-03T07:21:07;7.63;;;2.15;;
43998;SDS011;51319;52.162;5.302;2023-04-03T07:23:34;5.22;;;2.70;;
43998;SDS011;51319;52.162;5.302;2023-04-03T07:26:01;8.40;;;2.20;;
43998;SDS011;51319;52.162;5.302;2023-04-03T07:28:28;4.30;;;1.98;;
43998;SDS011;51319;52.162;5.302;2023-04-03T07:31:02;10.25;;;2.47;;
43998;SDS011;51319;52.162;5.302;2023-04-03T07:33:31;8.25;;;2.22;;
43998;SDS011;51319;52.162;5.302;2023-04-03T07:35:59;7.95;;;2.72;;
43998;SDS011;51319;52.162;5.302;2023-04-03T07:38:26;4.90;;;2.97;;
43998;SDS011;51319;52.162;5.302;2023-04-03T07:40:53;7.57;;;1.95;;
43998;SDS011;51319;52.162;5.302;2023-04-03T07:43:21;4.63;;;2.30;;
43998;SDS011;51319;52.162;5.302;2023-04-03T07:45:48;7.43;;;1.85;;
43998;SDS011;51319;52.162;5.302;2023-04-03T07:48:20;6.22;;;1.90;;
43998;SDS011;51319;52.162;5.302;2023-04-03T07:50:48;6.55;;;1.98;;
43998;SDS011;51319;52.162;5.302;2023-04-03T07:53:16;4.90;;;1.77;;
43998;SDS011;51319;52.162;5.302;2023-04-03T07:55:46;3.45;;;1.50;;
43998;SDS011;51319;52.162;5.302;2023-04-03T07:58:16;3.45;;;1.65;;
43998;SDS011;51319;52.162;5.302;2023-04-03T08:00:44;6.22;;;1.88;;
43998;SDS011;51319;52.162;5.302;2023-04-03T08:03:11;5.13;;;1.83;;
43998;SDS011;51319;52.162;5.302;2023-04-03T08:05:43;4.95;;;1.83;;
43998;SDS011;51319;52.162;5.302;2023-04-03T08:08:11;3.35;;;1.35;;
43998;SDS011;51319;52.162;5.302;2023-04-03T08:10:40;5.18;;;1.58;;
43998;SDS011;51319;52.162;5.302;2023-04-03T08:13:07;5.95;;;1.85;;
43998;SDS011;51319;52.162;5.302;2023-04-03T08:15:35;4.97;;;2.47;;
43998;SDS011;51319;52.162;5.302;2023-04-03T08:18:03;6.40;;;2.15;;
43998;SDS011;51319;52.162;5.302;2023-04-03T08:20:30;5.20;;;1.67;;
43998;SDS011;51319;52.162;5.302;2023-04-03T08:22:57;3.45;;;1.40;;
43998;SDS011;51319;52.162;5.302;2023-04-03T08:25:24;3.45;;;1.40;;
43998;SDS011;51319;52.162;5.302;2023-04-03T08:27:51;4.30;;;1.42;;
43998;SDS011;51319;52.162;5.302;2023-04-03T08:30:19;2.35;;;1.20;;
43998;SDS011;51319;52.162;5.302;2023-04-03T08:32:47;3.47;;;1.52;;
43998;SDS011;51319;52.162;5.302;2023-04-03T08:35:14;5.68;;;1.67;;
43998;SDS011;51319;52.162;5.302;2023-04-03T08:37:40;4.43;;;1.40;;
43998;SDS011;51319;52.162;5.302;2023-04-03T08:40:11;4.10;;;1.55;;
43998;SDS011;51319;52.162;5.302;2023-04-03T08:48:06;4.45;;;1.45;;
43998;SDS011;51319;52.162;5.302;2023-04-03T08:50:57;3.92;;;1.20;;
43998;SDS011;51319;52.162;5.302;2023-04-03T08:53:29;2.10;;;1.08;;
43998;SDS011;51319;52.162;5.302;2023-04-03T08:58:32;2.00;;;1.00;;
43998;SDS011;51319;52.162;5.302;2023-04-03T09:01:26;3.15;;;0.90;;
43998;SDS011;51319;52.162;5.302;2023-04-03T09:04:00;3.92;;;1.85;;
43998;SDS011;51319;52.162;5.302;2023-04-03T09:06:29;1.98;;;1.00;;
43998;SDS011;51319;52.162;5.302;2023-04-03T09:14:26;3.53;;;1.13;;
43998;SDS011;51319;52.162;5.302;2023-04-03T09:19:41;1.45;;;0.90;;
43998;SDS011;51319;52.162;5.302;2023-04-03T09:22:38;2.60;;;0.70;;
43998;SDS011;51319;52.162;5.302;2023-04-03T09:25:22;1.30;;;0.70;;
43998;SDS011;51319;52.162;5.302;2023-04-03T09:27:51;1.40;;;0.80;;
43998;SDS011;51319;52.162;5.302;2023-04-03T09:30:20;1.65;;;0.60;;
43998;SDS011;51319;52.162;5.302;2023-04-03T09:32:51;1.83;;;0.90;;
43998;SDS011;51319;52.162;5.302;2023-04-03T09:35:24;2.38;;;0.77;;
43998;SDS011;51319;52.162;5.302;2023-04-03T09:40:37;4.13;;;0.68;;
43998;SDS011;51319;52.162;5.302;2023-04-03T09:45:47;3.42;;;0.70;;
43998;SDS011;51319;52.162;5.302;2023-04-03T09:48:17;1.13;;;0.60;;
43998;SDS011;51319;52.162;5.302;2023-04-03T09:53:27;1.10;;;0.40;;
43998;SDS011;51319;52.162;5.302;2023-04-03T09:55:56;1.90;;;0.70;;
43998;SDS011;51319;52.162;5.302;2023-04-03T09:58:27;1.05;;;0.47;;
43998;SDS011;51319;52.162;5.302;2023-04-03T10:06:33;1.65;;;0.50;;
43998;SDS011;51319;52.162;5.302;2023-04-03T10:11:59;2.17;;;0.50;;
43998;SDS011;51319;52.162;5.302;2023-04-03T10:14:28;0.70;;;0.50;;
43998;SDS011;51319;52.162;5.302;2023-04-03T10:17:02;1.67;;;0.73;;
43998;SDS011;51319;52.162;5.302;2023-04-03T10:19:34;1.00;;;0.55;;
43998;SDS011;51319;52.162;5.302;2023-04-03T10:33:00;4.03;;;0.70;;
43998;SDS011;51319;52.162;5.302;2023-04-03T10:35:49;0.63;;;0.43;;
43998;SDS011;51319;52.162;5.302;2023-04-03T10:44:16;1.13;;;0.90;;
43998;SDS011;51319;52.162;5.302;2023-04-03T10:47:05;1.13;;;0.50;;
43998;SDS011;51319;52.162;5.302;2023-04-03T10:55:31;0.85;;;0.55;;
43998;SDS011;51319;52.162;5.302;2023-04-03T10:58:05;1.10;;;0.50;;
43998;SDS011;51319;52.162;5.302;2023-04-03T11:00:35;1.00;;;0.50;;
43998;SDS011;51319;52.162;5.302;2023-04-03T11:03:06;1.02;;;0.60;;
43998;SDS011;51319;52.162;5.302;2023-04-03T11:05:53;0.75;;;0.60;;
43998;SDS011;51319;52.162;5.302;2023-04-03T11:08:38;2.22;;;0.70;;
43998;SDS011;51319;52.162;5.302;2023-04-03T11:11:16;1.10;;;0.50;;
43998;SDS011;51319;52.162;5.302;2023-04-03T11:16:36;0.65;;;0.40;;
43998;SDS011;51319;52.162;5.302;2023-04-03T11:19:19;1.42;;;0.70;;
43998;SDS011;51319;52.162;5.302;2023-04-03T11:21:52;0.77;;;0.40;;
43998;SDS011;51319;52.162;5.302;2023-04-03T11:24:38;1.88;;;0.60;;
43998;SDS011;51319;52.162;5.302;2023-04-03T11:27:11;1.45;;;0.45;;
43998;SDS011;51319;52.162;5.302;2023-04-03T11:29:44;1.02;;;0.50;;
43998;SDS011;51319;52.162;5.302;2023-04-03T11:35:04;0.77;;;0.47;;
43998;SDS011;51319;52.162;5.302;2023-04-03T11:37:41;1.23;;;0.52;;
43998;SDS011;51319;52.162;5.302;2023-04-03T11:42:48;1.83;;;0.70;;
43998;SDS011;51319;52.162;5.302;2023-04-03T11:47:54;4.10;;;0.70;;
43998;SDS011;51319;52.162;5.302;2023-04-03T11:50:39;1.65;;;0.90;;
43998;SDS011;51319;52.162;5.302;2023-04-03T11:58:37;0.65;;;0.50;;
43998;SDS011;51319;52.162;5.302;2023-04-03T12:01:10;4.05;;;0.73;;
43998;SDS011;51319;52.162;5.302;2023-04-03T12:08:50;1.50;;;0.65;;
43998;SDS011;51319;52.162;5.302;2023-04-03T12:11:28;2.60;;;0.73;;
43998;SDS011;51319;52.162;5.302;2023-04-03T12:22:09;3.30;;;0.93;;
43998;SDS011;51319;52.162;5.302;2023-04-03T12:24:42;1.20;;;0.73;;
43998;SDS011;51319;52.162;5.302;2023-04-03T12:27:23;1.17;;;0.93;;
43998;SDS011;51319;52.162;5.302;2023-04-03T12:29:57;1.27;;;0.63;;
43998;SDS011;51319;52.162;5.302;2023-04-03T12:32:58;1.90;;;0.70;;
43998;SDS011;51319;52.162;5.302;2023-04-03T12:35:40;1.80;;;0.90;;
43998;SDS011;51319;52.162;5.302;2023-04-03T12:46:58;2.17;;;0.70;;
43998;SDS011;51319;52.162;5.302;2023-04-03T12:49:35;4.18;;;1.00;;
43998;SDS011;51319;52.162;5.302;2023-04-03T12:52:12;3.53;;;0.70;;
43998;SDS011;51319;52.162;5.302;2023-04-03T12:54:56;3.15;;;0.82;;
43998;SDS011;51319;52.162;5.302;2023-04-03T12:57:25;2.50;;;0.52;;
43998;SDS011;51319;52.162;5.302;2023-04-03T12:59:54;1.38;;;0.45;;
43998;SDS011;51319;52.162;5.302;2023-04-03T13:02:22;0.77;;;0.60;;
43998;SDS011;51319;52.162;5.302;2023-04-03T13:04:53;2.13;;;0.77;;
43998;SDS011;51319;52.162;5.302;2023-04-03T13:07:25;2.13;;;0.70;;
43998;SDS011;51319;52.162;5.302;2023-04-03T13:12:44;2.45;;;0.70;;
43998;SDS011;51319;52.162;5.302;2023-04-03T13:15:18;0.95;;;0.60;;
43998;SDS011;51319;52.162;5.302;2023-04-03T13:17:53;0.80;;;0.80;;
43998;SDS011;51319;52.162;5.302;2023-04-03T13:22:54;2.40;;;1.15;;
43998;SDS011;51319;52.162;5.302;2023-04-03T13:25:36;3.85;;;0.90;;
43998;SDS011;51319;52.162;5.302;2023-04-03T13:28:09;2.03;;;0.70;;
43998;SDS011;51319;52.162;5.302;2023-04-03T13:30:40;1.80;;;0.80;;
43998;SDS011;51319;52.162;5.302;2023-04-03T13:33:22;0.93;;;0.63;;
43998;SDS011;51319;52.162;5.302;2023-04-03T13:35:54;1.55;;;0.88;;
43998;SDS011;51319;52.162;5.302;2023-04-03T13:38:29;1.80;;;0.70;;
43998;SDS011;51319;52.162;5.302;2023-04-03T13:43:33;1.70;;;0.75;;
43998;SDS011;51319;52.162;5.302;2023-04-03T13:46:23;4.78;;;1.98;;
43998;SDS011;51319;52.162;5.302;2023-04-03T13:48:54;1.48;;;0.70;;
43998;SDS011;51319;52.162;5.302;2023-04-03T13:51:26;2.67;;;0.75;;
43998;SDS011;51319;52.162;5.302;2023-04-03T13:54:01;3.63;;;0.90;;
43998;SDS011;51319;52.162;5.302;2023-04-03T13:56:45;1.65;;;0.60;;
43998;SDS011;51319;52.162;5.302;2023-04-03T14:01:46;2.42;;;1.00;;
43998;SDS011;51319;52.162;5.302;2023-04-03T14:04:24;1.48;;;0.88;;
43998;SDS011;51319;52.162;5.302;2023-04-03T14:06:54;2.50;;;1.17;;
43998;SDS011;51319;52.162;5.302;2023-04-03T14:09:22;1.95;;;1.00;;
43998;SDS011;51319;52.162;5.302;2023-04-03T14:11:58;1.85;;;0.80;;
43998;SDS011;51319;52.162;5.302;2023-04-03T14:14:32;3.55;;;2.45;;
43998;SDS011;51319;52.162;5.302;2023-04-03T14:17:03;6.68;;;1.83;;
43998;SDS011;51319;52.162;5.302;2023-04-03T14:19:50;5.47;;;2.45;;
43998;SDS011;51319;52.162;5.302;2023-04-03T14:22:20;2.85;;;1.00;;
43998;SDS011;51319;52.162;5.302;2023-04-03T14:27:28;1.15;;;0.70;;
43998;SDS011;51319;52.162;5.302;2023-04-03T14:29:59;1.48;;;0.80;;
43998;SDS011;51319;52.162;5.302;2023-04-03T14:32:29;1.98;;;0.90;;
43998;SDS011;51319;52.162;5.302;2023-04-03T14:34:56;2.60;;;1.10;;
43998;SDS011;51319;52.162;5.302;2023-04-03T14:37:25;1.55;;;0.73;;
43998;SDS011;51319;52.162;5.302;2023-04-03T14:39:56;3.75;;;1.20;;
43998;SDS011;51319;52.162;5.302;2023-04-03T14:42:28;4.85;;;1.02;;
43998;SDS011;51319;52.162;5.302;2023-04-03T14:47:25;2.40;;;1.10;;
43998;SDS011;51319;52.162;5.302;2023-04-03T14:50:00;5.93;;;1.05;;
43998;SDS011;51319;52.162;5.302;2023-04-03T14:52:32;2.45;;;0.98;;
43998;SDS011;51319;52.162;5.302;2023-04-03T14:55:03;2.25;;;1.00;;
43998;SDS011;51319;52.162;5.302;2023-04-03T14:57:32;2.15;;;1.20;;
43998;SDS011;51319;52.162;5.302;2023-04-03T15:00:00;3.03;;;1.13;;
43998;SDS011;51319;52.162;5.302;2023-04-03T15:02:30;2.30;;;0.93;;
43998;SDS011;51319;52.162;5.302;2023-04-03T15:05:01;3.58;;;1.55;;
43998;SDS011;51319;52.162;5.302;2023-04-03T15:07:38;3.13;;;1.50;;
43998;SDS011;51319;52.162;5.302;2023-04-03T15:10:18;1.15;;;1.05;;
43998;SDS011;51319;52.162;5.302;2023-04-03T15:12:46;2.15;;;1.08;;
43998;SDS011;51319;52.162;5.302;2023-04-03T15:15:14;4.18;;;1.60;;
43998;SDS011;51319;52.162;5.302;2023-04-03T15:17:44;2.03;;;1.30;;
43998;SDS011;51319;52.162;5.302;2023-04-03T15:20:19;3.22;;;1.50;;
43998;SDS011;51319;52.162;5.302;2023-04-03T15:22:49;4.65;;;1.40;;
43998;SDS011;51319;52.162;5.302;2023-04-03T15:25:16;8.70;;;1.52;;
43998;SDS011;51319;52.162;5.302;2023-04-03T15:27:44;4.75;;;1.42;;
43998;SDS011;51319;52.162;5.302;2023-04-03T15:30:15;3.08;;;1.17;;
43998;SDS011;51319;52.162;5.302;2023-04-03T15:32:44;5.75;;;1.40;;
43998;SDS011;51319;52.162;5.302;2023-04-03T15:35:11;4.28;;;1.63;;
43998;SDS011;51319;52.162;5.302;2023-04-03T15:37:38;4.28;;;1.30;;
43998;SDS011;51319;52.162;5.302;2023-04-03T15:40:05;5.72;;;1.30;;
43998;SDS011;51319;52.162;5.302;2023-04-03T15:42:33;3.63;;;1.70;;
43998;SDS011;51319;52.162;5.302;2023-04-03T15:45:00;5.32;;;1.63;;
43998;SDS011;51319;52.162;5.302;2023-04-03T15:47:37;4.88;;;1.48;;
43998;SDS011;51319;52.162;5.302;2023-04-03T15:50:08;2.17;;;1.48;;
43998;SDS011;51319;52.162;5.302;2023-04-03T15:52:36;3.67;;;1.20;;
43998;SDS011;51319;52.162;5.302;2023-04-03T15:55:03;2.72;;;1.50;;
43998;SDS011;51319;52.162;5.302;2023-04-03T15:57:31;3.17;;;1.67;;
43998;SDS011;51319;52.162;5.302;2023-04-03T15:59:58;4.93;;;1.60;;
43998;SDS011;51319;52.162;5.302;2023-04-03T16:02:25;4.10;;;1.70;;
43998;SDS011;51319;52.162;5.302;2023-04-03T16:04:54;5.20;;;2.72;;
43998;SDS011;51319;52.162;5.302;2023-04-03T16:07:22;3.83;;;1.77;;
43998;SDS011;51319;52.162;5.302;2023-04-03T16:09:49;6.70;;;1.65;;
43998;SDS011;51319;52.162;5.302;2023-04-03T16:12:18;3.85;;;2.10;;
43998;SDS011;51319;52.162;5.302;2023-04-03T16:14:45;4.10;;;1.58;;
43998;SDS011;51319;52.162;5.302;2023-04-03T16:17:12;5.97;;;1.50;;
43998;SDS011;51319;52.162;5.302;2023-04-03T16:19:39;7.05;;;2.00;;
43998;SDS011;51319;52.162;5.302;2023-04-03T16:22:13;3.10;;;1.40;;
43998;SDS011;51319;52.162;5.302;2023-04-03T16:24:41;4.32;;;1.85;;
43998;SDS011;51319;52.162;5.302;2023-04-03T16:27:08;2.17;;;1.45;;
43998;SDS011;51319;52.162;5.302;2023-04-03T16:29:35;7.22;;;1.50;;
43998;SDS011;51319;52.162;5.302;2023-04-03T16:32:02;5.65;;;2.13;;
43998;SDS011;51319;52.162;5.302;2023-04-03T16:34:29;7.90;;;3.95;;
43998;SDS011;51319;52.162;5.302;2023-04-03T16:36:58;3.45;;;1.83;;
43998;SDS011;51319;52.162;5.302;2023-04-03T16:39:25;3.35;;;1.58;;
43998;SDS011;51319;52.162;5.302;2023-04-03T16:41:53;3.25;;;1.30;;
43998;SDS011;51319;52.162;5.302;2023-04-03T16:44:19;3.05;;;1.60;;
43998;SDS011;51319;52.162;5.302;2023-04-03T16:46:49;3.47;;;1.48;;
43998;SDS011;51319;52.162;5.302;2023-04-03T16:49:16;6.72;;;1.63;;
43998;SDS011;51319;52.162;5.302;2023-04-03T16:51:43;3.92;;;1.38;;
43998;SDS011;51319;52.162;5.302;2023-04-03T16:54:11;5.28;;;1.67;;
43998;SDS011;51319;52.162;5.302;2023-04-03T16:56:39;2.95;;;1.30;;
43998;SDS011;51319;52.162;5.302;2023-04-03T16:59:06;2.88;;;1.23;;
43998;SDS011;51319;52.162;5.302;2023-04-03T17:01:34;2.13;;;1.40;;